sensor_id;sensor_type;location;lat;lon;timestamp;pressure;altitude;pressure_sealevel;temperature
71630;BMP280;59479;51.902;8.212;2023-07-20T00:01:09;100647.09;;;20.46
71630;BMP280;59479;51.902;8.212;2023-07-20T00:03:34;100644.59;;;20.45
71630;BMP280;59479;51.902;8.212;2023-07-20T00:05:59;100642.22;;;20.40
71630;BMP280;59479;51.902;8.212;2023-07-20T00:08:25;100642.25;;;20.39
71630;BMP280;59479;51.902;8.212;2023-07-20T00:10:50;100644.91;;;20.37
71630;BMP280;59479;51.902;8.212;2023-07-20T00:13:15;100639.84;;;20.36
71630;BMP280;59479;51.902;8.212;2023-07-20T00:15:41;100643.34;;;20.33
71630;BMP280;59479;51.902;8.212;2023-07-20T00:18:07;100655.44;;;20.28
71630;BMP280;59479;51.902;8.212;2023-07-20T00:20:32;100652.13;;;20.26
71630;BMP280;59479;51.902;8.212;2023-07-20T00:22:58;100654.69;;;20.26
71630;BMP280;59479;51.902;8.212;2023-07-20T00:25:24;100646.97;;;20.28
71630;BMP280;59479;51.902;8.212;2023-07-20T00:27:49;100641.97;;;20.25
71630;BMP280;59479;51.902;8.212;2023-07-20T00:30:15;100644.66;;;20.22
71630;BMP280;59479;51.902;8.212;2023-07-20T00:32:42;100632.69;;;20.24
71630;BMP280;59479;51.902;8.212;2023-07-20T00:35:09;100633.66;;;20.20
71630;BMP280;59479;51.902;8.212;2023-07-20T00:37:34;100643.88;;;20.20
71630;BMP280;59479;51.902;8.212;2023-07-20T00:39:59;100643.16;;;20.17
71630;BMP280;59479;51.902;8.212;2023-07-20T00:42:26;100638.13;;;20.15
71630;BMP280;59479;51.902;8.212;2023-07-20T00:44:51;100632.97;;;20.17
71630;BMP280;59479;51.902;8.212;2023-07-20T00:47:16;100634.69;;;20.16
71630;BMP280;59479;51.902;8.212;2023-07-20T00:49:42;100634.97;;;20.09
71630;BMP280;59479;51.902;8.212;2023-07-20T00:52:10;100628.31;;;20.05
71630;BMP280;59479;51.902;8.212;2023-07-20T00:54:36;100623.94;;;20.08
71630;BMP280;59479;51.902;8.212;2023-07-20T00:57:02;100626.44;;;20.10
71630;BMP280;59479;51.902;8.212;2023-07-20T00:59:27;100632.31;;;20.12
71630;BMP280;59479;51.902;8.212;2023-07-20T01:01:53;100632.34;;;20.10
71630;BMP280;59479;51.902;8.212;2023-07-20T01:04:19;100626.53;;;20.07
71630;BMP280;59479;51.902;8.212;2023-07-20T01:06:58;100634.25;;;20.05
71630;BMP280;59479;51.902;8.212;2023-07-20T01:12:43;100630.22;;;20.00
71630;BMP280;59479;51.902;8.212;2023-07-20T01:15:12;100626.91;;;19.98
71630;BMP280;59479;51.902;8.212;2023-07-20T01:17:37;100632.81;;;19.98
71630;BMP280;59479;51.902;8.212;2023-07-20T01:20:03;100640.06;;;19.87
71630;BMP280;59479;51.902;8.212;2023-07-20T01:25:22;100635.09;;;19.83
71630;BMP280;59479;51.902;8.212;2023-07-20T01:33:20;100621.03;;;19.73
71630;BMP280;59479;51.902;8.212;2023-07-20T01:35:53;100632.91;;;19.74
71630;BMP280;59479;51.902;8.212;2023-07-20T01:38:20;100628.06;;;19.67
71630;BMP280;59479;51.902;8.212;2023-07-20T01:40:46;100632.22;;;19.69
71630;BMP280;59479;51.902;8.212;2023-07-20T01:43:12;100628.00;;;19.68
71630;BMP280;59479;51.902;8.212;2023-07-20T01:45:37;100621.47;;;19.61
71630;BMP280;59479;51.902;8.212;2023-07-20T01:48:03;100628.34;;;19.59
71630;BMP280;59479;51.902;8.212;2023-07-20T01:50:29;100625.09;;;19.56
71630;BMP280;59479;51.902;8.212;2023-07-20T01:52:54;100625.84;;;19.58
71630;BMP280;59479;51.902;8.212;2023-07-20T01:55:20;100630.09;;;19.57
71630;BMP280;59479;51.902;8.212;2023-07-20T01:57:45;100628.34;;;19.59
71630;BMP280;59479;51.902;8.212;2023-07-20T02:00:11;100633.66;;;19.53
71630;BMP280;59479;51.902;8.212;2023-07-20T02:02:37;100626.88;;;19.52
71630;BMP280;59479;51.902;8.212;2023-07-20T02:05:02;100634.78;;;19.46
71630;BMP280;59479;51.902;8.212;2023-07-20T02:07:27;100628.78;;;19.47
71630;BMP280;59479;51.902;8.212;2023-07-20T02:09:53;100626.16;;;19.49
71630;BMP280;59479;51.902;8.212;2023-07-20T02:12:18;100621.88;;;19.51
71630;BMP280;59479;51.902;8.212;2023-07-20T02:14:43;100620.91;;;19.53
71630;BMP280;59479;51.902;8.212;2023-07-20T02:17:09;100619.91;;;19.57
71630;BMP280;59479;51.902;8.212;2023-07-20T02:19:36;100614.16;;;19.52
71630;BMP280;59479;51.902;8.212;2023-07-20T02:22:02;100609.84;;;19.54
71630;BMP280;59479;51.902;8.212;2023-07-20T02:24:27;100610.78;;;19.52
71630;BMP280;59479;51.902;8.212;2023-07-20T02:26:52;100604.97;;;19.48
71630;BMP280;59479;51.902;8.212;2023-07-20T02:29:18;100619.31;;;19.51
71630;BMP280;59479;51.902;8.212;2023-07-20T02:31:43;100610.81;;;19.50
71630;BMP280;59479;51.902;8.212;2023-07-20T02:34:08;100609.34;;;19.45
71630;BMP280;59479;51.902;8.212;2023-07-20T02:36:34;100616.22;;;19.43
71630;BMP280;59479;51.902;8.212;2023-07-20T02:39:00;100616.47;;;19.36
71630;BMP280;59479;51.902;8.212;2023-07-20T02:41:27;100613.91;;;19.36
71630;BMP280;59479;51.902;8.212;2023-07-20T02:43:52;100620.69;;;19.37
71630;BMP280;59479;51.902;8.212;2023-07-20T02:46:17;100609.63;;;19.38
71630;BMP280;59479;51.902;8.212;2023-07-20T02:48:43;100615.59;;;19.37
71630;BMP280;59479;51.902;8.212;2023-07-20T02:51:08;100625.78;;;19.37
71630;BMP280;59479;51.902;8.212;2023-07-20T02:53:34;100624.28;;;19.31
71630;BMP280;59479;51.902;8.212;2023-07-20T02:55:59;100621.84;;;19.28
71630;BMP280;59479;51.902;8.212;2023-07-20T02:58:25;100621.13;;;19.25
71630;BMP280;59479;51.902;8.212;2023-07-20T03:00:50;100625.31;;;19.26
71630;BMP280;59479;51.902;8.212;2023-07-20T03:03:15;100632.28;;;19.21
71630;BMP280;59479;51.902;8.212;2023-07-20T03:05:41;100638.91;;;19.26
71630;BMP280;59479;51.902;8.212;2023-07-20T03:08:07;100632.97;;;19.26
71630;BMP280;59479;51.902;8.212;2023-07-20T03:10:32;100632.25;;;19.22
71630;BMP280;59479;51.902;8.212;2023-07-20T03:12:58;100639.88;;;19.22
71630;BMP280;59479;51.902;8.212;2023-07-20T03:15:23;100652.81;;;19.18
71630;BMP280;59479;51.902;8.212;2023-07-20T03:17:49;100654.44;;;19.19
71630;BMP280;59479;51.902;8.212;2023-07-20T03:20:14;100646.09;;;19.15
71630;BMP280;59479;51.902;8.212;2023-07-20T03:22:39;100652.00;;;19.16
71630;BMP280;59479;51.902;8.212;2023-07-20T03:25:05;100659.78;;;19.13
71630;BMP280;59479;51.902;8.212;2023-07-20T03:27:30;100658.16;;;19.10
71630;BMP280;59479;51.902;8.212;2023-07-20T03:29:56;100655.09;;;19.01
71630;BMP280;59479;51.902;8.212;2023-07-20T03:32:21;100650.16;;;18.95
71630;BMP280;59479;51.902;8.212;2023-07-20T03:34:46;100653.88;;;18.85
71630;BMP280;59479;51.902;8.212;2023-07-20T03:37:13;100648.69;;;18.88
71630;BMP280;59479;51.902;8.212;2023-07-20T03:39:38;100645.47;;;18.83
71630;BMP280;59479;51.902;8.212;2023-07-20T03:42:04;100644.66;;;18.83
71630;BMP280;59479;51.902;8.212;2023-07-20T03:44:30;100647.13;;;18.84
71630;BMP280;59479;51.902;8.212;2023-07-20T03:46:55;100645.34;;;18.88
71630;BMP280;59479;51.902;8.212;2023-07-20T03:49:21;100651.94;;;18.93
71630;BMP280;59479;51.902;8.212;2023-07-20T03:51:46;100647.72;;;18.92
71630;BMP280;59479;51.902;8.212;2023-07-20T03:54:11;100652.91;;;18.89
71630;BMP280;59479;51.902;8.212;2023-07-20T03:56:37;100648.13;;;18.80
71630;BMP280;59479;51.902;8.212;2023-07-20T03:59:02;100650.81;;;18.76
71630;BMP280;59479;51.902;8.212;2023-07-20T04:01:27;100651.59;;;18.78
71630;BMP280;59479;51.902;8.212;2023-07-20T04:03:53;100654.66;;;18.63
71630;BMP280;59479;51.902;8.212;2023-07-20T04:06:18;100651.25;;;18.62
71630;BMP280;59479;51.902;8.212;2023-07-20T04:08:44;100663.69;;;18.71
71630;BMP280;59479;51.902;8.212;2023-07-20T04:11:12;100669.19;;;18.59
71630;BMP280;59479;51.902;8.212;2023-07-20T04:13:38;100665.91;;;18.56
71630;BMP280;59479;51.902;8.212;2023-07-20T04:16:03;100669.19;;;18.59
71630;BMP280;59479;51.902;8.212;2023-07-20T04:18:29;100670.09;;;18.57
71630;BMP280;59479;51.902;8.212;2023-07-20T04:20:54;100670.94;;;18.57
71630;BMP280;59479;51.902;8.212;2023-07-20T04:23:19;100679.81;;;18.46
71630;BMP280;59479;51.902;8.212;2023-07-20T04:25:45;100684.56;;;18.56
71630;BMP280;59479;51.902;8.212;2023-07-20T04:28:10;100677.66;;;18.60
71630;BMP280;59479;51.902;8.212;2023-07-20T04:30:39;100686.09;;;18.60
71630;BMP280;59479;51.902;8.212;2023-07-20T04:33:07;100684.56;;;18.56
71630;BMP280;59479;51.902;8.212;2023-07-20T04:35:50;100686.69;;;18.43
71630;BMP280;59479;51.902;8.212;2023-07-20T04:38:16;100700.28;;;18.42
71630;BMP280;59479;51.902;8.212;2023-07-20T04:40:43;100696.88;;;18.43
71630;BMP280;59479;51.902;8.212;2023-07-20T04:43:08;100706.16;;;18.44
71630;BMP280;59479;51.902;8.212;2023-07-20T04:45:34;100707.78;;;18.46
71630;BMP280;59479;51.902;8.212;2023-07-20T04:47:59;100704.41;;;18.46
71630;BMP280;59479;51.902;8.212;2023-07-20T04:50:25;100702.66;;;18.48
71630;BMP280;59479;51.902;8.212;2023-07-20T04:52:50;100710.97;;;18.52
71630;BMP280;59479;51.902;8.212;2023-07-20T04:55:15;100709.34;;;18.50
71630;BMP280;59479;51.902;8.212;2023-07-20T04:57:41;100721.13;;;18.52
71630;BMP280;59479;51.902;8.212;2023-07-20T05:00:06;100710.22;;;18.49
71630;BMP280;59479;51.902;8.212;2023-07-20T05:02:32;100700.91;;;18.50
71630;BMP280;59479;51.902;8.212;2023-07-20T05:04:57;100701.75;;;18.49
71630;BMP280;59479;51.902;8.212;2023-07-20T05:07:22;100699.13;;;18.52
71630;BMP280;59479;51.902;8.212;2023-07-20T05:09:48;100693.34;;;18.47
71630;BMP280;59479;51.902;8.212;2023-07-20T05:12:13;100699.31;;;18.46
71630;BMP280;59479;51.902;8.212;2023-07-20T05:14:38;100701.84;;;18.46
71630;BMP280;59479;51.902;8.212;2023-07-20T05:17:04;100704.41;;;18.46
71630;BMP280;59479;51.902;8.212;2023-07-20T05:19:29;100711.22;;;18.45
71630;BMP280;59479;51.902;8.212;2023-07-20T05:21:55;100710.44;;;18.43
71630;BMP280;59479;51.902;8.212;2023-07-20T05:24:20;100715.47;;;18.45
71630;BMP280;59479;51.902;8.212;2023-07-20T05:26:47;100714.69;;;18.43
71630;BMP280;59479;51.902;8.212;2023-07-20T05:29:13;100724.91;;;18.41
71630;BMP280;59479;51.902;8.212;2023-07-20T05:31:38;100721.44;;;18.44
71630;BMP280;59479;51.902;8.212;2023-07-20T05:34:04;100720.69;;;18.40
71630;BMP280;59479;51.902;8.212;2023-07-20T05:36:29;100718.97;;;18.41
71630;BMP280;59479;51.902;8.212;2023-07-20T05:38:56;100717.41;;;18.37
71630;BMP280;59479;51.902;8.212;2023-07-20T05:41:21;100726.72;;;18.38
71630;BMP280;59479;51.902;8.212;2023-07-20T05:43:47;100729.44;;;18.32
71630;BMP280;59479;51.902;8.212;2023-07-20T05:46:13;100736.44;;;18.24
71630;BMP280;59479;51.902;8.212;2023-07-20T05:48:38;100729.75;;;18.21
71630;BMP280;59479;51.902;8.212;2023-07-20T05:51:03;100729.78;;;18.20
71630;BMP280;59479;51.902;8.212;2023-07-20T05:53:29;100733.03;;;18.25
71630;BMP280;59479;51.902;8.212;2023-07-20T05:55:54;100726.06;;;18.31
71630;BMP280;59479;51.902;8.212;2023-07-20T05:58:20;100738.72;;;18.34
71630;BMP280;59479;51.902;8.212;2023-07-20T06:00:49;100736.03;;;18.37
71630;BMP280;59479;51.902;8.212;2023-07-20T06:03:15;100743.09;;;18.29
71630;BMP280;59479;51.902;8.212;2023-07-20T06:05:41;100741.28;;;18.33
71630;BMP280;59479;51.902;8.212;2023-07-20T06:08:07;100747.59;;;18.20
71630;BMP280;59479;51.902;8.212;2023-07-20T06:10:32;100743.09;;;18.29
71630;BMP280;59479;51.902;8.212;2023-07-20T06:12:57;100748.78;;;18.37
71630;BMP280;59479;51.902;8.212;2023-07-20T06:15:28;100752.78;;;18.44
71630;BMP280;59479;51.902;8.212;2023-07-20T06:17:55;100753.81;;;18.39
71630;BMP280;59479;51.902;8.212;2023-07-20T06:20:21;100745.78;;;18.52
71630;BMP280;59479;51.902;8.212;2023-07-20T06:22:47;100762.06;;;18.47
71630;BMP280;59479;51.902;8.212;2023-07-20T06:25:13;100756.94;;;18.48
71630;BMP280;59479;51.902;8.212;2023-07-20T06:27:38;100762.84;;;18.49
71630;BMP280;59479;51.902;8.212;2023-07-20T06:30:03;100766.22;;;18.49
71630;BMP280;59479;51.902;8.212;2023-07-20T06:32:29;100763.66;;;18.49
71630;BMP280;59479;51.902;8.212;2023-07-20T06:34:54;100772.25;;;18.47
71630;BMP280;59479;51.902;8.212;2023-07-20T06:37:20;100769.28;;;18.60
71630;BMP280;59479;51.902;8.212;2023-07-20T06:39:45;100766.69;;;18.61
71630;BMP280;59479;51.902;8.212;2023-07-20T06:42:11;100770.81;;;18.65
71630;BMP280;59479;51.902;8.212;2023-07-20T06:44:36;100778.38;;;18.68
71630;BMP280;59479;51.902;8.212;2023-07-20T06:47:02;100774.84;;;18.72
71630;BMP280;59479;51.902;8.212;2023-07-20T06:49:28;100776.47;;;18.75
71630;BMP280;59479;51.902;8.212;2023-07-20T06:51:53;100777.13;;;18.81
71630;BMP280;59479;51.902;8.212;2023-07-20T06:54:19;100770.22;;;18.85
71630;BMP280;59479;51.902;8.212;2023-07-20T06:56:44;100767.56;;;18.88
71630;BMP280;59479;51.902;8.212;2023-07-20T06:59:09;100782.78;;;18.89
71630;BMP280;59479;51.902;8.212;2023-07-20T07:01:35;100771.81;;;18.87
71630;BMP280;59479;51.902;8.212;2023-07-20T07:04:00;100779.22;;;18.94
71630;BMP280;59479;51.902;8.212;2023-07-20T07:06:25;100778.22;;;19.00
71630;BMP280;59479;51.902;8.212;2023-07-20T07:08:52;100779.91;;;19.01
71630;BMP280;59479;51.902;8.212;2023-07-20T07:11:18;100779.69;;;19.07
71630;BMP280;59479;51.902;8.212;2023-07-20T07:13:43;100781.16;;;19.14
71630;BMP280;59479;51.902;8.212;2023-07-20T07:16:11;100778.63;;;19.14
71630;BMP280;59479;51.902;8.212;2023-07-20T07:18:37;100783.72;;;19.14
71630;BMP280;59479;51.902;8.212;2023-07-20T07:21:02;100790.41;;;19.18
71630;BMP280;59479;51.902;8.212;2023-07-20T07:23:27;100800.31;;;19.25
71630;BMP280;59479;51.902;8.212;2023-07-20T07:25:52;100795.03;;;19.31
71630;BMP280;59479;51.902;8.212;2023-07-20T07:28:18;100794.41;;;19.25
71630;BMP280;59479;51.902;8.212;2023-07-20T07:30:43;100805.47;;;19.24
71630;BMP280;59479;51.902;8.212;2023-07-20T07:33:09;100802.47;;;19.37
71630;BMP280;59479;51.902;8.212;2023-07-20T07:35:35;100801.66;;;19.37
71630;BMP280;59479;51.902;8.212;2023-07-20T07:38:00;100801.47;;;19.42
71630;BMP280;59479;51.902;8.212;2023-07-20T07:40:26;100802.75;;;19.54
71630;BMP280;59479;51.902;8.212;2023-07-20T07:42:51;100811.94;;;19.59
71630;BMP280;59479;51.902;8.212;2023-07-20T07:45:16;100809.94;;;19.67
71630;BMP280;59479;51.902;8.212;2023-07-20T07:47:42;100799.59;;;19.72
71630;BMP280;59479;51.902;8.212;2023-07-20T07:50:07;100811.28;;;19.77
71630;BMP280;59479;51.902;8.212;2023-07-20T07:52:32;100816.19;;;19.83
71630;BMP280;59479;51.902;8.212;2023-07-20T07:54:58;100816.84;;;19.89
71630;BMP280;59479;51.902;8.212;2023-07-20T07:57:23;100816.84;;;19.89
71630;BMP280;59479;51.902;8.212;2023-07-20T07:59:48;100823.34;;;19.98
71630;BMP280;59479;51.902;8.212;2023-07-20T08:02:14;100825.63;;;20.05
71630;BMP280;59479;51.902;8.212;2023-07-20T08:04:39;100828.16;;;20.05
71630;BMP280;59479;51.902;8.212;2023-07-20T08:07:05;100825.41;;;20.11
71630;BMP280;59479;51.902;8.212;2023-07-20T08:09:30;100822.88;;;20.11
71630;BMP280;59479;51.902;8.212;2023-07-20T08:11:56;100829.75;;;20.09
71630;BMP280;59479;51.902;8.212;2023-07-20T08:14:21;100821.56;;;20.24
71630;BMP280;59479;51.902;8.212;2023-07-20T08:16:47;100820.47;;;20.29
71630;BMP280;59479;51.902;8.212;2023-07-20T08:19:12;100820.91;;;20.40
71630;BMP280;59479;51.902;8.212;2023-07-20T08:21:37;100820.59;;;20.49
71630;BMP280;59479;51.902;8.212;2023-07-20T08:24:03;100822.44;;;20.46
71630;BMP280;59479;51.902;8.212;2023-07-20T08:26:29;100822.34;;;20.47
71630;BMP280;59479;51.902;8.212;2023-07-20T08:28:54;100817.63;;;20.60
71630;BMP280;59479;51.902;8.212;2023-07-20T08:31:19;100814.91;;;20.64
71630;BMP280;59479;51.902;8.212;2023-07-20T08:33:45;100825.44;;;20.55
71630;BMP280;59479;51.902;8.212;2023-07-20T08:36:11;100821.31;;;20.53
71630;BMP280;59479;51.902;8.212;2023-07-20T08:38:36;100821.69;;;20.65
71630;BMP280;59479;51.902;8.212;2023-07-20T08:41:01;100823.03;;;20.75
71630;BMP280;59479;51.902;8.212;2023-07-20T08:43:27;100821.34;;;20.74
71630;BMP280;59479;51.902;8.212;2023-07-20T08:45:54;100820.91;;;20.86
71630;BMP280;59479;51.902;8.212;2023-07-20T08:48:24;100827.66;;;20.87
71630;BMP280;59479;51.902;8.212;2023-07-20T08:50:51;100825.66;;;20.95
71630;BMP280;59479;51.902;8.212;2023-07-20T08:53:19;100818.63;;;21.00
71630;BMP280;59479;51.902;8.212;2023-07-20T08:55:45;100822.66;;;21.05
71630;BMP280;59479;51.902;8.212;2023-07-20T08:58:12;100822.59;;;21.07
71630;BMP280;59479;51.902;8.212;2023-07-20T09:00:41;100829.44;;;21.06
71630;BMP280;59479;51.902;8.212;2023-07-20T09:03:06;100838.75;;;21.07
71630;BMP280;59479;51.902;8.212;2023-07-20T09:05:33;100839.19;;;21.18
71630;BMP280;59479;51.902;8.212;2023-07-20T09:08:00;100832.06;;;21.26
71630;BMP280;59479;51.902;8.212;2023-07-20T09:10:26;100825.69;;;21.36
71630;BMP280;59479;51.902;8.212;2023-07-20T09:12:51;100826.50;;;21.36
71630;BMP280;59479;51.902;8.212;2023-07-20T09:15:17;100828.78;;;21.42
71630;BMP280;59479;51.902;8.212;2023-07-20T09:17:46;100821.50;;;21.54
71630;BMP280;59479;51.902;8.212;2023-07-20T09:20:14;100827.97;;;21.63
71630;BMP280;59479;51.902;8.212;2023-07-20T09:22:39;100822.78;;;21.64
71630;BMP280;59479;51.902;8.212;2023-07-20T09:25:15;100822.31;;;21.55
71630;BMP280;59479;51.902;8.212;2023-07-20T09:27:46;100824.53;;;21.64
71630;BMP280;59479;51.902;8.212;2023-07-20T09:30:13;100827.44;;;21.75
71630;BMP280;59479;51.902;8.212;2023-07-20T09:32:47;100828.22;;;21.77
71630;BMP280;59479;51.902;8.212;2023-07-20T09:35:13;100820.28;;;21.83
71630;BMP280;59479;51.902;8.212;2023-07-20T09:37:39;100824.38;;;21.87
71630;BMP280;59479;51.902;8.212;2023-07-20T09:40:06;100822.38;;;21.93
71630;BMP280;59479;51.902;8.212;2023-07-20T09:42:35;100822.94;;;21.99
71630;BMP280;59479;51.902;8.212;2023-07-20T09:45:00;100831.25;;;22.04
71630;BMP280;59479;51.902;8.212;2023-07-20T09:47:25;100826.91;;;22.06
71630;BMP280;59479;51.902;8.212;2023-07-20T09:49:58;100823.72;;;22.21
71630;BMP280;59479;51.902;8.212;2023-07-20T09:52:25;100820.03;;;22.27
71630;BMP280;59479;51.902;8.212;2023-07-20T09:54:51;100826.97;;;22.25
71630;BMP280;59479;51.902;8.212;2023-07-20T09:57:16;100832.72;;;22.30
71630;BMP280;59479;51.902;8.212;2023-07-20T09:59:42;100826.59;;;22.32
71630;BMP280;59479;51.902;8.212;2023-07-20T10:02:13;100831.53;;;22.36
71630;BMP280;59479;51.902;8.212;2023-07-20T10:04:41;100821.91;;;22.41
71630;BMP280;59479;51.902;8.212;2023-07-20T10:07:10;100814.91;;;22.45
71630;BMP280;59479;51.902;8.212;2023-07-20T10:09:39;100824.34;;;22.44
71630;BMP280;59479;51.902;8.212;2023-07-20T10:12:05;100814.72;;;22.49
71630;BMP280;59479;51.902;8.212;2023-07-20T10:14:38;100827.34;;;22.54
71630;BMP280;59479;51.902;8.212;2023-07-20T10:17:07;100808.91;;;22.64
71630;BMP280;59479;51.902;8.212;2023-07-20T10:19:42;100816.34;;;22.69
71630;BMP280;59479;51.902;8.212;2023-07-20T10:22:12;100815.94;;;22.77
71630;BMP280;59479;51.902;8.212;2023-07-20T10:24:39;100823.03;;;22.73
71630;BMP280;59479;51.902;8.212;2023-07-20T10:27:06;100820.78;;;22.65
71630;BMP280;59479;51.902;8.212;2023-07-20T10:29:32;100814.09;;;22.63
71630;BMP280;59479;51.902;8.212;2023-07-20T10:31:58;100810.72;;;22.62
71630;BMP280;59479;51.902;8.212;2023-07-20T10:34:24;100813.53;;;22.75
71630;BMP280;59479;51.902;8.212;2023-07-20T10:36:49;100805.97;;;22.72
71630;BMP280;59479;51.902;8.212;2023-07-20T10:39:27;100801.69;;;22.72
71630;BMP280;59479;51.902;8.212;2023-07-20T10:42:03;100804.66;;;22.81
71630;BMP280;59479;51.902;8.212;2023-07-20T10:44:29;100809.47;;;22.71
71630;BMP280;59479;51.902;8.212;2023-07-20T10:46:59;100810.38;;;22.86
71630;BMP280;59479;51.902;8.212;2023-07-20T10:49:25;100809.41;;;22.90
71630;BMP280;59479;51.902;8.212;2023-07-20T10:51:59;100800.13;;;22.86
71630;BMP280;59479;51.902;8.212;2023-07-20T10:56:50;100800.72;;;22.93
71630;BMP280;59479;51.902;8.212;2023-07-20T11:01:55;100801.13;;;22.84
71630;BMP280;59479;51.902;8.212;2023-07-20T11:04:37;100798.22;;;22.91
71630;BMP280;59479;51.902;8.212;2023-07-20T11:07:03;100804.56;;;23.01
71630;BMP280;59479;51.902;8.212;2023-07-20T11:09:33;100804.91;;;23.12
71630;BMP280;59479;51.902;8.212;2023-07-20T11:12:12;100806.78;;;23.09
71630;BMP280;59479;51.902;8.212;2023-07-20T11:14:57;100802.91;;;23.00
71630;BMP280;59479;51.902;8.212;2023-07-20T11:17:30;100801.94;;;22.84
71630;BMP280;59479;51.902;8.212;2023-07-20T11:19:57;100806.53;;;22.78
71630;BMP280;59479;51.902;8.212;2023-07-20T11:22:22;100812.47;;;22.78
71630;BMP280;59479;51.902;8.212;2023-07-20T11:24:48;100800.72;;;22.75
71630;BMP280;59479;51.902;8.212;2023-07-20T11:27:14;100798.69;;;22.81
71630;BMP280;59479;51.902;8.212;2023-07-20T11:29:40;100788.00;;;22.90
71630;BMP280;59479;51.902;8.212;2023-07-20T11:32:06;100796.53;;;23.09
71630;BMP280;59479;51.902;8.212;2023-07-20T11:34:32;100795.22;;;23.00
71630;BMP280;59479;51.902;8.212;2023-07-20T11:36:58;100792.38;;;22.88
71630;BMP280;59479;51.902;8.212;2023-07-20T11:39:24;100790.03;;;22.83
71630;BMP280;59479;51.902;8.212;2023-07-20T11:41:55;100791.84;;;22.81
71630;BMP280;59479;51.902;8.212;2023-07-20T11:44:22;100787.69;;;22.97
71630;BMP280;59479;51.902;8.212;2023-07-20T11:46:59;100789.94;;;23.03
71630;BMP280;59479;51.902;8.212;2023-07-20T11:49:25;100786.69;;;23.00
71630;BMP280;59479;51.902;8.212;2023-07-20T11:51:51;100788.75;;;23.10
71630;BMP280;59479;51.902;8.212;2023-07-20T11:54:16;100781.72;;;23.14
71630;BMP280;59479;51.902;8.212;2023-07-20T11:56:42;100777.75;;;23.25
71630;BMP280;59479;51.902;8.212;2023-07-20T11:59:07;100775.50;;;23.36
71630;BMP280;59479;51.902;8.212;2023-07-20T12:01:33;100771.72;;;23.26
71630;BMP280;59479;51.902;8.212;2023-07-20T12:04:00;100776.44;;;23.00
71630;BMP280;59479;51.902;8.212;2023-07-20T12:06:27;100769.69;;;23.16
71630;BMP280;59479;51.902;8.212;2023-07-20T12:08:59;100770.44;;;23.18
71630;BMP280;59479;51.902;8.212;2023-07-20T12:11:36;100769.91;;;23.28
71630;BMP280;59479;51.902;8.212;2023-07-20T12:14:03;100759.28;;;23.35
71630;BMP280;59479;51.902;8.212;2023-07-20T12:16:29;100765.38;;;23.33
71630;BMP280;59479;51.902;8.212;2023-07-20T12:19:09;100756.47;;;23.40
71630;BMP280;59479;51.902;8.212;2023-07-20T12:21:36;100760.63;;;23.25
71630;BMP280;59479;51.902;8.212;2023-07-20T12:24:02;100769.16;;;23.26
71630;BMP280;59479;51.902;8.212;2023-07-20T12:26:32;100761.47;;;23.26
71630;BMP280;59479;51.902;8.212;2023-07-20T12:28:59;100758.56;;;23.15
71630;BMP280;59479;51.902;8.212;2023-07-20T12:31:25;100753.63;;;23.29
71630;BMP280;59479;51.902;8.212;2023-07-20T12:33:51;100755.25;;;23.47
71630;BMP280;59479;51.902;8.212;2023-07-20T12:36:17;100755.78;;;23.53
71630;BMP280;59479;51.902;8.212;2023-07-20T12:38:43;100759.34;;;23.51
71630;BMP280;59479;51.902;8.212;2023-07-20T12:41:10;100752.38;;;23.53
71630;BMP280;59479;51.902;8.212;2023-07-20T12:43:37;100759.63;;;23.62
71630;BMP280;59479;51.902;8.212;2023-07-20T12:46:03;100766.22;;;23.67
71630;BMP280;59479;51.902;8.212;2023-07-20T12:48:28;100755.97;;;23.67
71630;BMP280;59479;51.902;8.212;2023-07-20T12:50:53;100756.44;;;23.73
71630;BMP280;59479;51.902;8.212;2023-07-20T12:53:19;100743.09;;;23.84
71630;BMP280;59479;51.902;8.212;2023-07-20T12:55:44;100745.25;;;23.91
71630;BMP280;59479;51.902;8.212;2023-07-20T12:58:09;100750.34;;;23.76
71630;BMP280;59479;51.902;8.212;2023-07-20T13:00:35;100740.84;;;23.93
71630;BMP280;59479;51.902;8.212;2023-07-20T13:03:01;100737.69;;;23.88
71630;BMP280;59479;51.902;8.212;2023-07-20T13:05:32;100731.44;;;24.09
71630;BMP280;59479;51.902;8.212;2023-07-20T13:07:58;100730.78;;;24.06
71630;BMP280;59479;51.902;8.212;2023-07-20T13:10:23;100733.50;;;24.18
71630;BMP280;59479;51.902;8.212;2023-07-20T13:12:49;100724.72;;;24.22
71630;BMP280;59479;51.902;8.212;2023-07-20T13:15:14;100727.19;;;24.23
71630;BMP280;59479;51.902;8.212;2023-07-20T13:17:40;100727.28;;;24.22
71630;BMP280;59479;51.902;8.212;2023-07-20T13:20:06;100729.69;;;24.25
71630;BMP280;59479;51.902;8.212;2023-07-20T13:22:33;100729.56;;;24.43
71630;BMP280;59479;51.902;8.212;2023-07-20T13:24:59;100735.94;;;24.36
71630;BMP280;59479;51.902;8.212;2023-07-20T13:27:24;100728.63;;;24.29
71630;BMP280;59479;51.902;8.212;2023-07-20T13:29:51;100732.63;;;24.34
71630;BMP280;59479;51.902;8.212;2023-07-20T13:32:17;100725.75;;;24.35
71630;BMP280;59479;51.902;8.212;2023-07-20T13:34:46;100733.78;;;24.29
71630;BMP280;59479;51.902;8.212;2023-07-20T13:37:12;100723.09;;;24.36
71630;BMP280;59479;51.902;8.212;2023-07-20T13:39:38;100721.63;;;24.32
71630;BMP280;59479;51.902;8.212;2023-07-20T13:42:04;100724.91;;;24.19
71630;BMP280;59479;51.902;8.212;2023-07-20T13:44:33;100731.19;;;24.29
71630;BMP280;59479;51.902;8.212;2023-07-20T13:46:58;100721.53;;;24.34
71630;BMP280;59479;51.902;8.212;2023-07-20T13:49:23;100729.69;;;24.25
71630;BMP280;59479;51.902;8.212;2023-07-20T13:51:49;100723.91;;;24.37
71630;BMP280;59479;51.902;8.212;2023-07-20T13:54:14;100721.34;;;24.37
71630;BMP280;59479;51.902;8.212;2023-07-20T13:56:40;100715.41;;;24.36
71630;BMP280;59479;51.902;8.212;2023-07-20T13:59:05;100723.59;;;24.43
71630;BMP280;59479;51.902;8.212;2023-07-20T14:01:31;100724.69;;;24.39
71630;BMP280;59479;51.902;8.212;2023-07-20T14:03:58;100723.59;;;24.43
71630;BMP280;59479;51.902;8.212;2023-07-20T14:06:24;100720.59;;;24.50
71630;BMP280;59479;51.902;8.212;2023-07-20T14:08:49;100719.78;;;24.49